createdAt,value
2022-11-20T00:00:43.000Z,1006.1
2022-11-20T00:01:59.000Z,1006.1
2022-11-20T00:03:16.000Z,1006.1
2022-11-20T00:04:32.000Z,1006.1
2022-11-20T00:05:48.000Z,1006
2022-11-20T00:07:03.000Z,1006
2022-11-20T00:08:19.000Z,1006
2022-11-20T00:09:36.000Z,1006.1
2022-11-20T00:10:52.000Z,1006
2022-11-20T00:12:08.000Z,1006
2022-11-20T00:13:24.000Z,1006
2022-11-20T00:14:40.000Z,1006
2022-11-20T00:15:56.000Z,1006
2022-11-20T00:17:13.000Z,1006
2022-11-20T00:18:29.000Z,1006
2022-11-20T00:19:45.000Z,1006
2022-11-20T00:21:01.000Z,1005.9
2022-11-20T00:22:17.000Z,1006
2022-11-20T00:23:33.000Z,1006
2022-11-20T00:24:49.000Z,1006
2022-11-20T00:26:05.000Z,1006
2022-11-20T00:27:21.000Z,1006
2022-11-20T00:28:37.000Z,1006.1
2022-11-20T00:29:54.000Z,1006
2022-11-20T00:31:10.000Z,1006
2022-11-20T00:32:26.000Z,1006
2022-11-20T00:33:42.000Z,1006
2022-11-20T00:34:58.000Z,1006
2022-11-20T00:36:15.000Z,1006
2022-11-20T00:37:31.000Z,1006
2022-11-20T00:38:47.000Z,1006.1
2022-11-20T00:40:02.000Z,1006.1
2022-11-20T00:41:18.000Z,1006.1
2022-11-20T00:42:34.000Z,1006.1
2022-11-20T00:43:51.000Z,1006.1
2022-11-20T00:45:07.000Z,1006.1
2022-11-20T00:46:23.000Z,1006.1
2022-11-20T00:47:39.000Z,1006.1
2022-11-20T00:48:55.000Z,1006.1
2022-11-20T00:50:12.000Z,1006.1
2022-11-20T00:51:28.000Z,1006.2
2022-11-20T00:52:44.000Z,1006.2
2022-11-20T00:54:00.000Z,1006.2
2022-11-20T00:55:16.000Z,1006.1
2022-11-20T00:56:32.000Z,1006.2
2022-11-20T00:57:48.000Z,1006.2
2022-11-20T00:59:04.000Z,1006.2
2022-11-20T01:00:20.000Z,1006.2
2022-11-20T01:01:36.000Z,1006.1
2022-11-20T01:02:53.000Z,1006.1
2022-11-20T01:04:09.000Z,1006.1
2022-11-20T01:05:25.000Z,1006.1
2022-11-20T01:06:41.000Z,1006.2
2022-11-20T01:07:57.000Z,1006.1
2022-11-20T01:09:13.000Z,1006.2
2022-11-20T01:10:30.000Z,1006.2
2022-11-20T01:11:46.000Z,1006.2
2022-11-20T01:13:01.000Z,1006.2
2022-11-20T01:14:17.000Z,1006.1
2022-11-20T01:15:33.000Z,1006.2
2022-11-20T01:16:50.000Z,1006.1
2022-11-20T01:18:06.000Z,1006.2
2022-11-20T01:19:22.000Z,1006.2
2022-11-20T01:20:38.000Z,1006.1
2022-11-20T01:21:54.000Z,1006.1
2022-11-20T01:23:11.000Z,1006.1
2022-11-20T01:24:27.000Z,1006.1
2022-11-20T01:25:43.000Z,1006.1
2022-11-20T01:26:59.000Z,1006.2
2022-11-20T01:28:15.000Z,1006.1
2022-11-20T01:29:31.000Z,1006
2022-11-20T01:30:47.000Z,1006
2022-11-20T01:32:03.000Z,1006
2022-11-20T01:33:19.000Z,1005.9
2022-11-20T01:34:35.000Z,1005.9
2022-11-20T01:35:51.000Z,1005.9
2022-11-20T01:37:08.000Z,1005.8
2022-11-20T01:38:24.000Z,1005.9
2022-11-20T01:39:40.000Z,1005.8
2022-11-20T01:40:56.000Z,1005.8
2022-11-20T01:42:12.000Z,1005.7
2022-11-20T01:43:29.000Z,1005.7
2022-11-20T01:44:45.000Z,1005.8
2022-11-20T01:46:00.000Z,1005.7
2022-11-20T01:47:16.000Z,1005.7
2022-11-20T01:48:32.000Z,1005.7
2022-11-20T01:49:49.000Z,1005.7
2022-11-20T01:51:05.000Z,1005.7
2022-11-20T01:52:20.000Z,1005.7
2022-11-20T01:53:36.000Z,1005.7
2022-11-20T01:54:52.000Z,1005.7
2022-11-20T01:56:09.000Z,1005.7
2022-11-20T01:57:25.000Z,1005.7
2022-11-20T01:59:57.000Z,1005.6
2022-11-20T02:01:13.000Z,1005.7
2022-11-20T02:02:29.000Z,1005.6
2022-11-20T02:03:46.000Z,1005.6
2022-11-20T02:05:02.000Z,1005.5
2022-11-20T02:06:18.000Z,1005.6
2022-11-20T02:07:34.000Z,1005.5
2022-11-20T02:08:49.000Z,1005.5
2022-11-20T02:10:06.000Z,1005.5
2022-11-20T02:11:22.000Z,1005.5
2022-11-20T02:12:38.000Z,1005.4
2022-11-20T02:13:54.000Z,1005.5
2022-11-20T02:15:10.000Z,1005.6
2022-11-20T02:16:27.000Z,1005.5
2022-11-20T02:17:43.000Z,1005.6
2022-11-20T02:18:59.000Z,1005.5
2022-11-20T02:20:15.000Z,1005.6
2022-11-20T02:21:31.000Z,1005.6
2022-11-20T02:22:47.000Z,1005.6
2022-11-20T02:24:04.000Z,1005.5
2022-11-20T02:25:19.000Z,1005.5
2022-11-20T02:26:35.000Z,1005.5
2022-11-20T02:27:51.000Z,1005.5
2022-11-20T02:29:07.000Z,1005.4
2022-11-20T02:30:24.000Z,1005.5
2022-11-20T02:31:40.000Z,1005.5
2022-11-20T02:32:56.000Z,1005.4
2022-11-20T02:34:12.000Z,1005.5
2022-11-20T02:35:28.000Z,1005.5
2022-11-20T02:36:45.000Z,1005.4
2022-11-20T02:38:01.000Z,1005.4
2022-11-20T02:39:17.000Z,1005.3
2022-11-20T02:40:33.000Z,1005.4
2022-11-20T02:41:48.000Z,1005.3
2022-11-20T02:43:05.000Z,1005.4
2022-11-20T02:44:21.000Z,1005.3
2022-11-20T02:45:37.000Z,1005.4
2022-11-20T02:46:53.000Z,1005.4
2022-11-20T02:48:09.000Z,1005.3
2022-11-20T02:49:25.000Z,1005.3
2022-11-20T02:50:42.000Z,1005.3
2022-11-20T02:51:58.000Z,1005.3
2022-11-20T02:53:14.000Z,1005.3
2022-11-20T02:54:30.000Z,1005.4
2022-11-20T02:55:46.000Z,1005.3
2022-11-20T02:57:03.000Z,1005.3
2022-11-20T02:58:18.000Z,1005.3
2022-11-20T02:59:34.000Z,1005.3
2022-11-20T03:00:50.000Z,1005.4
2022-11-20T03:02:06.000Z,1005.4
2022-11-20T03:03:23.000Z,1005.4
2022-11-20T03:04:39.000Z,1005.4
2022-11-20T03:05:55.000Z,1005.3
2022-11-20T03:07:11.000Z,1005.2
2022-11-20T03:08:27.000Z,1005.2
2022-11-20T03:09:44.000Z,1005.3
2022-11-20T03:11:00.000Z,1005.2
2022-11-20T03:12:16.000Z,1005.2
2022-11-20T03:13:32.000Z,1005.2
2022-11-20T03:14:47.000Z,1005.3
2022-11-20T03:16:03.000Z,1005.2
2022-11-20T03:17:20.000Z,1005.2
2022-11-20T03:18:36.000Z,1005.3
2022-11-20T03:19:52.000Z,1005.2
2022-11-20T03:21:08.000Z,1005.2
2022-11-20T03:22:24.000Z,1005.2
2022-11-20T03:23:41.000Z,1005.2
2022-11-20T03:24:57.000Z,1005.2
2022-11-20T03:26:13.000Z,1005.2
2022-11-20T03:27:29.000Z,1005.2
2022-11-20T03:28:45.000Z,1005.1
2022-11-20T03:30:02.000Z,1005.1
2022-11-20T03:31:17.000Z,1005.1
2022-11-20T03:32:33.000Z,1005.2
2022-11-20T03:33:49.000Z,1005.2
2022-11-20T03:35:05.000Z,1005.2
2022-11-20T03:36:22.000Z,1005.1
2022-11-20T03:37:38.000Z,1005
2022-11-20T03:38:54.000Z,1005
2022-11-20T03:40:10.000Z,1005
2022-11-20T03:41:26.000Z,1005
2022-11-20T03:42:42.000Z,1005.1
2022-11-20T03:43:59.000Z,1005
2022-11-20T03:45:15.000Z,1005.1
2022-11-20T03:46:31.000Z,1005.1
2022-11-20T03:47:46.000Z,1005.1
2022-11-20T03:49:02.000Z,1005.1
2022-11-20T03:50:19.000Z,1005.1
2022-11-20T03:51:35.000Z,1005.1
2022-11-20T03:52:51.000Z,1005.1
2022-11-20T03:54:07.000Z,1005
2022-11-20T03:55:23.000Z,1005.1
2022-11-20T03:56:40.000Z,1005
2022-11-20T03:57:56.000Z,1005
2022-11-20T03:59:12.000Z,1005
2022-11-20T04:00:28.000Z,1005
2022-11-20T04:01:44.000Z,1005
2022-11-20T04:03:00.000Z,1005
2022-11-20T04:04:16.000Z,1004.9
2022-11-20T04:05:32.000Z,1005
2022-11-20T04:06:48.000Z,1004.9
2022-11-20T04:08:04.000Z,1004.9
2022-11-20T04:09:20.000Z,1004.9
2022-11-20T04:10:37.000Z,1004.9
2022-11-20T04:11:53.000Z,1004.9
2022-11-20T04:13:09.000Z,1004.9
2022-11-20T04:14:25.000Z,1004.9
2022-11-20T04:15:41.000Z,1004.9
2022-11-20T04:16:58.000Z,1004.9
2022-11-20T04:18:14.000Z,1005
2022-11-20T04:19:30.000Z,1004.9
2022-11-20T04:20:45.000Z,1004.9
2022-11-20T04:22:01.000Z,1004.8
2022-11-20T04:23:18.000Z,1004.9
2022-11-20T04:24:34.000Z,1005
2022-11-20T04:25:50.000Z,1004.9
2022-11-20T04:27:06.000Z,1005
2022-11-20T04:28:22.000Z,1005
2022-11-20T04:29:38.000Z,1005
2022-11-20T04:30:55.000Z,1005
2022-11-20T04:32:11.000Z,1005
2022-11-20T04:33:27.000Z,1005
2022-11-20T04:34:43.000Z,1005
2022-11-20T04:35:59.000Z,1004.9
2022-11-20T04:37:15.000Z,1005
2022-11-20T04:38:31.000Z,1005
2022-11-20T04:39:47.000Z,1004.9
2022-11-20T04:41:03.000Z,1004.9
2022-11-20T04:42:19.000Z,1005
2022-11-20T04:43:36.000Z,1004.9
2022-11-20T04:44:52.000Z,1005
2022-11-20T04:46:08.000Z,1004.9
2022-11-20T04:47:24.000Z,1004.9
2022-11-20T04:48:40.000Z,1005
2022-11-20T04:49:57.000Z,1005
2022-11-20T04:51:13.000Z,1005.1
2022-11-20T04:52:29.000Z,1005.1
2022-11-20T04:53:45.000Z,1005
2022-11-20T04:55:01.000Z,1005.1
2022-11-20T04:56:16.000Z,1005
2022-11-20T04:57:33.000Z,1005
2022-11-20T04:58:49.000Z,1005
2022-11-20T05:00:05.000Z,1005
2022-11-20T05:01:21.000Z,1005
2022-11-20T05:02:37.000Z,1005.1
2022-11-20T05:03:54.000Z,1005.1
2022-11-20T05:05:10.000Z,1005
2022-11-20T05:06:26.000Z,1005
2022-11-20T05:07:42.000Z,1005
2022-11-20T05:08:58.000Z,1005.1
2022-11-20T05:10:15.000Z,1005
2022-11-20T05:11:31.000Z,1005
2022-11-20T05:12:46.000Z,1005
2022-11-20T05:14:02.000Z,1005
2022-11-20T05:15:18.000Z,1004.9
2022-11-20T05:16:35.000Z,1004.9
2022-11-20T05:17:51.000Z,1004.9
2022-11-20T05:19:07.000Z,1005
2022-11-20T05:20:23.000Z,1005
2022-11-20T05:21:39.000Z,1005
2022-11-20T05:22:55.000Z,1004.9
2022-11-20T05:24:12.000Z,1004.9
2022-11-20T05:25:28.000Z,1005
2022-11-20T05:26:44.000Z,1004.9
2022-11-20T05:28:00.000Z,1004.9
2022-11-20T05:29:15.000Z,1004.9
2022-11-20T05:30:32.000Z,1004.9
2022-11-20T05:31:48.000Z,1004.9
2022-11-20T05:33:04.000Z,1004.9
2022-11-20T05:34:20.000Z,1004.9
2022-11-20T05:35:36.000Z,1004.9
2022-11-20T05:36:53.000Z,1004.9
2022-11-20T05:38:09.000Z,1004.8
2022-11-20T05:39:25.000Z,1004.8
2022-11-20T05:40:41.000Z,1004.9
2022-11-20T05:41:57.000Z,1004.8
2022-11-20T05:43:14.000Z,1004.8
2022-11-20T05:44:30.000Z,1004.8
2022-11-20T05:45:45.000Z,1004.8
2022-11-20T05:47:01.000Z,1004.8
2022-11-20T05:48:17.000Z,1004.8
2022-11-20T05:49:33.000Z,1004.7
2022-11-20T05:50:50.000Z,1004.8
2022-11-20T05:52:06.000Z,1004.8
2022-11-20T05:53:22.000Z,1004.7
2022-11-20T05:54:38.000Z,1004.7
2022-11-20T05:55:54.000Z,1004.7
2022-11-20T05:57:11.000Z,1004.7
2022-11-20T05:58:27.000Z,1004.7
2022-11-20T05:59:43.000Z,1004.7
2022-11-20T06:00:59.000Z,1004.7
2022-11-20T06:02:14.000Z,1004.7
2022-11-20T06:03:31.000Z,1004.7
2022-11-20T06:04:47.000Z,1004.7
2022-11-20T06:06:03.000Z,1004.7
2022-11-20T06:07:18.000Z,1004.8
2022-11-20T06:08:34.000Z,1004.7
2022-11-20T06:09:51.000Z,1004.7
2022-11-20T06:11:07.000Z,1004.7
2022-11-20T06:12:23.000Z,1004.6
2022-11-20T06:13:39.000Z,1004.8
2022-11-20T06:14:55.000Z,1004.7
2022-11-20T06:16:11.000Z,1004.7
2022-11-20T06:17:28.000Z,1004.7
2022-11-20T06:18:44.000Z,1004.7
2022-11-20T06:20:00.000Z,1004.7
2022-11-20T06:21:16.000Z,1004.7
2022-11-20T06:22:32.000Z,1004.7
2022-11-20T06:23:48.000Z,1004.7
2022-11-20T06:25:04.000Z,1004.7
2022-11-20T06:26:20.000Z,1004.7
2022-11-20T06:27:36.000Z,1004.8
2022-11-20T06:28:52.000Z,1004.7
2022-11-20T06:30:09.000Z,1004.7
2022-11-20T06:31:25.000Z,1004.6
2022-11-20T06:32:41.000Z,1004.7
2022-11-20T06:33:57.000Z,1004.7
2022-11-20T06:35:13.000Z,1004.7
2022-11-20T06:36:29.000Z,1004.8
2022-11-20T06:37:46.000Z,1004.7
2022-11-20T06:39:02.000Z,1004.7
2022-11-20T06:40:17.000Z,1004.7
2022-11-20T06:41:33.000Z,1004.7
2022-11-20T06:42:49.000Z,1004.8
2022-11-20T06:44:06.000Z,1004.8
2022-11-20T06:45:22.000Z,1004.8
2022-11-20T06:46:38.000Z,1004.9
2022-11-20T06:47:54.000Z,1004.9
2022-11-20T06:49:10.000Z,1004.8
2022-11-20T06:50:27.000Z,1004.9
2022-11-20T06:51:43.000Z,1004.9
2022-11-20T06:52:59.000Z,1004.9
2022-11-20T06:54:15.000Z,1004.8
2022-11-20T06:55:31.000Z,1004.8
2022-11-20T06:56:47.000Z,1004.8
2022-11-20T06:58:03.000Z,1004.8
2022-11-20T06:59:19.000Z,1004.9
2022-11-20T07:00:35.000Z,1004.9
2022-11-20T07:01:51.000Z,1004.9
2022-11-20T07:03:07.000Z,1004.9
2022-11-20T07:04:24.000Z,1004.9
2022-11-20T07:05:40.000Z,1004.9
2022-11-20T07:06:56.000Z,1004.9
2022-11-20T07:08:12.000Z,1004.9
2022-11-20T07:09:28.000Z,1004.9
2022-11-20T07:10:45.000Z,1004.9
2022-11-20T07:12:01.000Z,1004.9
2022-11-20T07:13:16.000Z,1004.9
2022-11-20T07:14:32.000Z,1004.8
2022-11-20T07:15:48.000Z,1004.8
2022-11-20T07:17:05.000Z,1004.8
2022-11-20T07:18:21.000Z,1004.8
2022-11-20T07:19:37.000Z,1004.9
2022-11-20T07:20:53.000Z,1004.8
2022-11-20T07:22:09.000Z,1004.8
2022-11-20T07:23:26.000Z,1004.9
2022-11-20T07:24:42.000Z,1004.8
2022-11-20T07:25:58.000Z,1004.8
2022-11-20T07:27:14.000Z,1004.9
2022-11-20T07:28:30.000Z,1004.9
2022-11-20T07:29:45.000Z,1005
2022-11-20T07:31:02.000Z,1005
2022-11-20T07:32:18.000Z,1005.1
2022-11-20T07:33:34.000Z,1005
2022-11-20T07:34:50.000Z,1005
2022-11-20T07:36:06.000Z,1004.9
2022-11-20T07:37:23.000Z,1004.9
2022-11-20T07:38:39.000Z,1004.9
2022-11-20T07:39:55.000Z,1004.9
2022-11-20T07:41:11.000Z,1004.9
2022-11-20T07:42:27.000Z,1004.9
2022-11-20T07:43:44.000Z,1004.9
2022-11-20T07:45:00.000Z,1004.8
2022-11-20T07:46:15.000Z,1004.8
2022-11-20T07:47:31.000Z,1004.8
2022-11-20T07:48:47.000Z,1004.8
2022-11-20T07:50:04.000Z,1004.8
2022-11-20T07:51:20.000Z,1004.7
2022-11-20T07:52:36.000Z,1004.8
2022-11-20T07:53:52.000Z,1004.8
2022-11-20T07:55:08.000Z,1004.8
2022-11-20T07:56:24.000Z,1004.8
2022-11-20T07:57:41.000Z,1004.8
2022-11-20T07:58:57.000Z,1004.8
2022-11-20T08:00:13.000Z,1004.7
2022-11-20T08:01:29.000Z,1004.7
2022-11-20T08:02:44.000Z,1004.7
2022-11-20T08:04:01.000Z,1004.7
2022-11-20T08:05:17.000Z,1004.7
2022-11-20T08:06:33.000Z,1004.7
2022-11-20T08:07:49.000Z,1004.7
2022-11-20T08:09:05.000Z,1004.7
2022-11-20T08:10:22.000Z,1004.7
2022-11-20T08:11:38.000Z,1004.7
2022-11-20T08:12:54.000Z,1004.7
2022-11-20T08:14:10.000Z,1004.7
2022-11-20T08:15:26.000Z,1004.7
2022-11-20T08:16:42.000Z,1004.7
2022-11-20T08:17:59.000Z,1004.7
2022-11-20T08:19:14.000Z,1004.7
2022-11-20T08:20:30.000Z,1004.6
2022-11-20T08:21:46.000Z,1004.7
2022-11-20T08:23:02.000Z,1004.7
2022-11-20T08:24:19.000Z,1004.7
2022-11-20T08:25:35.000Z,1004.7
2022-11-20T08:26:51.000Z,1004.7
2022-11-20T08:28:07.000Z,1004.6
2022-11-20T08:29:23.000Z,1004.6
2022-11-20T08:30:40.000Z,1004.6
2022-11-20T08:31:56.000Z,1004.7
2022-11-20T08:33:12.000Z,1004.7
2022-11-20T08:34:28.000Z,1004.7
2022-11-20T08:35:43.000Z,1004.7
2022-11-20T08:37:00.000Z,1004.7
2022-11-20T08:38:16.000Z,1004.6
2022-11-20T08:39:32.000Z,1004.6
2022-11-20T08:40:48.000Z,1004.8
2022-11-20T08:42:04.000Z,1004.7
2022-11-20T08:43:20.000Z,1004.7
2022-11-20T08:44:37.000Z,1004.7
2022-11-20T08:45:53.000Z,1004.7
2022-11-20T08:47:09.000Z,1004.7
2022-11-20T08:48:25.000Z,1004.7
2022-11-20T08:49:41.000Z,1004.7
2022-11-20T08:50:58.000Z,1004.7
2022-11-20T08:52:13.000Z,1004.7
2022-11-20T08:53:29.000Z,1004.7
2022-11-20T08:54:45.000Z,1004.8
2022-11-20T08:56:01.000Z,1004.7
2022-11-20T08:57:18.000Z,1004.6
2022-11-20T08:58:34.000Z,1004.7
2022-11-20T08:59:50.000Z,1004.7
2022-11-20T09:01:06.000Z,1004.6
2022-11-20T09:02:22.000Z,1004.6
2022-11-20T09:03:39.000Z,1004.6
2022-11-20T09:04:55.000Z,1004.6
2022-11-20T09:06:11.000Z,1004.6
2022-11-20T09:07:27.000Z,1004.6
2022-11-20T09:08:42.000Z,1004.6
2022-11-20T09:09:58.000Z,1004.6
2022-11-20T09:11:15.000Z,1004.7
2022-11-20T09:12:31.000Z,1004.6
2022-11-20T09:13:47.000Z,1004.6
2022-11-20T09:15:03.000Z,1004.7
2022-11-20T09:16:19.000Z,1004.6
2022-11-20T09:17:36.000Z,1004.6
2022-11-20T09:18:52.000Z,1004.5
2022-11-20T09:20:08.000Z,1004.5
2022-11-20T09:21:24.000Z,1004.5
2022-11-20T09:22:40.000Z,1004.5
2022-11-20T09:23:57.000Z,1004.5
2022-11-20T09:25:12.000Z,1004.5
2022-11-20T09:26:28.000Z,1004.5
2022-11-20T09:27:44.000Z,1004.5
2022-11-20T09:29:00.000Z,1004.4
2022-11-20T09:30:17.000Z,1004.4
2022-11-20T09:31:33.000Z,1004.4
2022-11-20T09:32:49.000Z,1004.3
2022-11-20T09:34:05.000Z,1004.3
2022-11-20T09:35:21.000Z,1004.3
2022-11-20T09:36:37.000Z,1004.3
2022-11-20T09:37:54.000Z,1004.3
2022-11-20T09:39:10.000Z,1004.3
2022-11-20T09:40:26.000Z,1004.3
2022-11-20T09:41:41.000Z,1004.3
2022-11-20T09:42:57.000Z,1004.3
2022-11-20T09:44:14.000Z,1004.2
2022-11-20T09:45:30.000Z,1004.1
2022-11-20T09:46:46.000Z,1004.2
2022-11-20T09:48:02.000Z,1004.2
2022-11-20T09:49:18.000Z,1004.2
2022-11-20T09:50:35.000Z,1004.1
2022-11-20T09:51:51.000Z,1004.1
2022-11-20T09:53:07.000Z,1004
2022-11-20T09:54:23.000Z,1003.9
2022-11-20T09:55:39.000Z,1004
2022-11-20T09:56:55.000Z,1003.9
2022-11-20T09:58:11.000Z,1004
2022-11-20T09:59:27.000Z,1003.9
2022-11-20T10:00:43.000Z,1003.9
2022-11-20T10:01:59.000Z,1003.9
2022-11-20T10:03:15.000Z,1003.8
2022-11-20T10:04:32.000Z,1003.9
2022-11-20T10:05:48.000Z,1003.9
2022-11-20T10:07:04.000Z,1003.8
2022-11-20T10:08:20.000Z,1003.8
2022-11-20T10:09:36.000Z,1003.8
2022-11-20T10:10:53.000Z,1003.7
2022-11-20T10:12:09.000Z,1003.7
2022-11-20T10:13:25.000Z,1003.8
2022-11-20T10:14:40.000Z,1003.7
2022-11-20T10:15:56.000Z,1003.7
2022-11-20T10:17:13.000Z,1003.7
2022-11-20T10:18:29.000Z,1003.6
2022-11-20T10:19:45.000Z,1003.6
2022-11-20T10:21:01.000Z,1003.5
2022-11-20T10:22:16.000Z,1003.5
2022-11-20T10:23:33.000Z,1003.6
2022-11-20T10:24:49.000Z,1003.5
2022-11-20T10:26:05.000Z,1003.4
2022-11-20T10:27:21.000Z,1003.5
2022-11-20T10:28:37.000Z,1003.5
2022-11-20T10:29:53.000Z,1003.5
2022-11-20T10:31:10.000Z,1003.5
2022-11-20T10:32:26.000Z,1003.5
2022-11-20T10:33:42.000Z,1003.5
2022-11-20T10:34:58.000Z,1003.5
2022-11-20T10:36:14.000Z,1003.5
2022-11-20T10:37:31.000Z,1003.5
2022-11-20T10:38:46.000Z,1003.5
2022-11-20T10:40:02.000Z,1003.6
2022-11-20T10:41:18.000Z,1003.4
2022-11-20T10:42:34.000Z,1003.5
2022-11-20T10:43:51.000Z,1003.5
2022-11-20T10:45:07.000Z,1003.5
2022-11-20T10:46:23.000Z,1003.5
2022-11-20T10:47:39.000Z,1003.5
2022-11-20T10:48:55.000Z,1003.5
2022-11-20T10:50:12.000Z,1003.4
2022-11-20T10:51:28.000Z,1003.4
2022-11-20T10:52:44.000Z,1003.5
2022-11-20T10:54:00.000Z,1003.5
2022-11-20T10:55:15.000Z,1003.4
2022-11-20T10:56:31.000Z,1003.4
2022-11-20T10:57:48.000Z,1003.4
2022-11-20T10:59:04.000Z,1003.3
2022-11-20T11:00:20.000Z,1003.4
2022-11-20T11:01:36.000Z,1003.3
2022-11-20T11:02:52.000Z,1003.3
2022-11-20T11:04:09.000Z,1003.3
2022-11-20T11:05:25.000Z,1003.2
2022-11-20T11:06:41.000Z,1003.2
2022-11-20T11:07:57.000Z,1003.2
2022-11-20T11:09:13.000Z,1003.2
2022-11-20T11:10:30.000Z,1003.2
2022-11-20T11:11:45.000Z,1003.1
2022-11-20T11:13:01.000Z,1003.2
2022-11-20T11:14:17.000Z,1003.1
2022-11-20T11:15:33.000Z,1003.2
2022-11-20T11:16:49.000Z,1003.1
2022-11-20T11:18:06.000Z,1003.1
2022-11-20T11:19:22.000Z,1003.1
2022-11-20T11:20:38.000Z,1003.1
2022-11-20T11:21:54.000Z,1003.1
2022-11-20T11:23:10.000Z,1003.1
2022-11-20T11:24:27.000Z,1003.1
2022-11-20T11:25:43.000Z,1003.1
2022-11-20T11:26:59.000Z,1003.1
2022-11-20T11:28:14.000Z,1003.1
2022-11-20T11:29:30.000Z,1003.1
2022-11-20T11:30:47.000Z,1003.1
2022-11-20T11:32:03.000Z,1003
2022-11-20T11:33:19.000Z,1003
2022-11-20T11:34:35.000Z,1003
2022-11-20T11:35:51.000Z,1002.9
2022-11-20T11:37:08.000Z,1002.8
2022-11-20T11:38:24.000Z,1002.8
2022-11-20T11:39:40.000Z,1002.8
2022-11-20T11:40:56.000Z,1002.8
2022-11-20T11:42:12.000Z,1002.8
2022-11-20T11:43:28.000Z,1002.8
2022-11-20T11:44:44.000Z,1002.8
2022-11-20T11:46:00.000Z,1002.8
2022-11-20T11:47:16.000Z,1002.9
2022-11-20T11:48:32.000Z,1002.8
2022-11-20T11:49:48.000Z,1002.7
2022-11-20T11:51:05.000Z,1002.8
2022-11-20T11:52:21.000Z,1002.8
2022-11-20T11:53:37.000Z,1002.7
2022-11-20T11:54:53.000Z,1002.6
2022-11-20T11:56:09.000Z,1002.7
2022-11-20T11:57:26.000Z,1002.6
2022-11-20T11:58:42.000Z,1002.6
2022-11-20T11:59:58.000Z,1002.6
2022-11-20T12:01:13.000Z,1002.7
2022-11-20T12:02:29.000Z,1002.6
2022-11-20T12:03:46.000Z,1002.7
2022-11-20T12:05:02.000Z,1002.6
2022-11-20T12:06:18.000Z,1002.7
2022-11-20T12:07:34.000Z,1002.6
2022-11-20T12:08:50.000Z,1002.6
2022-11-20T12:10:06.000Z,1002.6
2022-11-20T12:11:23.000Z,1002.6
2022-11-20T12:12:39.000Z,1002.6
2022-11-20T12:13:55.000Z,1002.6
2022-11-20T12:15:11.000Z,1002.5
2022-11-20T12:16:27.000Z,1002.5
2022-11-20T12:17:43.000Z,1002.5
2022-11-20T12:18:59.000Z,1002.4
2022-11-20T12:20:15.000Z,1002.4
2022-11-20T12:21:31.000Z,1002.4
2022-11-20T12:22:47.000Z,1002.3
2022-11-20T12:24:04.000Z,1002.2
2022-11-20T12:25:20.000Z,1002.3
2022-11-20T12:26:36.000Z,1002.3
2022-11-20T12:27:52.000Z,1002.2
2022-11-20T12:29:08.000Z,1002.3
2022-11-20T12:30:25.000Z,1002.2
2022-11-20T12:31:41.000Z,1002.2
2022-11-20T12:32:57.000Z,1002.2
2022-11-20T12:34:12.000Z,1002.2
2022-11-20T12:35:28.000Z,1002.2
2022-11-20T12:36:44.000Z,1002.2
2022-11-20T12:38:01.000Z,1002.1
2022-11-20T12:39:17.000Z,1002.1
2022-11-20T12:40:33.000Z,1002.1
2022-11-20T12:41:49.000Z,1002.1
2022-11-20T12:43:05.000Z,1002.1
2022-11-20T12:44:22.000Z,1002
2022-11-20T12:45:38.000Z,1002.1
2022-11-20T12:46:54.000Z,1002.1
2022-11-20T12:48:10.000Z,1002.1
2022-11-20T12:49:26.000Z,1002.1
2022-11-20T12:50:42.000Z,1002.2
2022-11-20T12:51:58.000Z,1002.2
2022-11-20T12:53:14.000Z,1002.1
2022-11-20T12:54:30.000Z,1002.1
2022-11-20T12:55:46.000Z,1002.1
2022-11-20T12:57:03.000Z,1002.1
2022-11-20T12:58:19.000Z,1002.1
2022-11-20T12:59:35.000Z,1002
2022-11-20T13:00:51.000Z,1002.1
2022-11-20T13:02:07.000Z,1002.1
2022-11-20T13:03:23.000Z,1002.2
2022-11-20T13:04:40.000Z,1002.1
2022-11-20T13:05:56.000Z,1002.2
2022-11-20T13:07:11.000Z,1002.1
2022-11-20T13:08:27.000Z,1002.2
2022-11-20T13:09:43.000Z,1002.2
2022-11-20T13:11:00.000Z,1002.1
2022-11-20T13:12:16.000Z,1002.1
2022-11-20T13:13:32.000Z,1002.1
2022-11-20T13:14:48.000Z,1002.1
2022-11-20T13:16:04.000Z,1002
2022-11-20T13:17:21.000Z,1002
2022-11-20T13:18:37.000Z,1001.9
2022-11-20T13:19:53.000Z,1002
2022-11-20T13:21:09.000Z,1001.9
2022-11-20T13:22:25.000Z,1001.9
2022-11-20T13:23:41.000Z,1001.6
2022-11-20T13:24:57.000Z,1001.8
2022-11-20T13:26:13.000Z,1001.8
2022-11-20T13:27:29.000Z,1001.7
2022-11-20T13:28:45.000Z,1001.7
2022-11-20T13:30:01.000Z,1001.5
2022-11-20T13:31:18.000Z,1001.6
2022-11-20T13:32:34.000Z,1001.5
2022-11-20T13:33:50.000Z,1001.5
2022-11-20T13:35:06.000Z,1001.4
2022-11-20T13:36:22.000Z,1001.5
2022-11-20T13:37:39.000Z,1001.4
2022-11-20T13:38:55.000Z,1001.4
2022-11-20T13:40:11.000Z,1001.4
2022-11-20T13:41:26.000Z,1001.4
2022-11-20T13:42:42.000Z,1001.5
2022-11-20T13:43:59.000Z,1001.4
2022-11-20T13:45:15.000Z,1001.4
2022-11-20T13:46:31.000Z,1001.4
2022-11-20T13:47:47.000Z,1001.5
2022-11-20T13:49:03.000Z,1001.5
2022-11-20T13:50:20.000Z,1001.4
2022-11-20T13:51:36.000Z,1001.4
2022-11-20T13:52:52.000Z,1001.3
2022-11-20T13:54:08.000Z,1001.3
2022-11-20T13:55:24.000Z,1001.3
2022-11-20T13:56:40.000Z,1001.2
2022-11-20T13:57:56.000Z,1001.1
2022-11-20T13:59:12.000Z,1001.1
2022-11-20T14:00:28.000Z,1001.2
2022-11-20T14:01:44.000Z,1001.1
2022-11-20T14:03:00.000Z,1001.1
2022-11-20T14:04:17.000Z,1001.1
2022-11-20T14:05:33.000Z,1001.1
2022-11-20T14:06:49.000Z,1001
2022-11-20T14:08:05.000Z,1001
2022-11-20T14:09:21.000Z,1001
2022-11-20T14:10:38.000Z,1001
2022-11-20T14:11:54.000Z,1001
2022-11-20T14:13:10.000Z,1001
2022-11-20T14:14:25.000Z,1001
2022-11-20T14:15:41.000Z,1000.9
2022-11-20T14:16:58.000Z,1001
2022-11-20T14:18:14.000Z,1001
2022-11-20T14:19:30.000Z,1001
2022-11-20T14:20:46.000Z,1001
2022-11-20T14:22:02.000Z,1001
2022-11-20T14:23:18.000Z,1000.9
2022-11-20T14:24:35.000Z,1000.8
2022-11-20T14:25:51.000Z,1000.8
2022-11-20T14:27:07.000Z,1000.9
2022-11-20T14:28:23.000Z,1000.8
2022-11-20T14:29:39.000Z,1000.9
2022-11-20T14:30:55.000Z,1000.8
2022-11-20T14:32:11.000Z,1000.8
2022-11-20T14:33:27.000Z,1000.8
2022-11-20T14:34:43.000Z,1000.8
2022-11-20T14:35:59.000Z,1000.7
2022-11-20T14:37:15.000Z,1000.7
2022-11-20T14:38:31.000Z,1000.7
2022-11-20T14:39:47.000Z,1000.7
2022-11-20T14:41:03.000Z,1000.6
2022-11-20T14:42:19.000Z,1000.7
2022-11-20T14:43:36.000Z,1000.8
2022-11-20T14:44:52.000Z,1000.8
2022-11-20T14:46:08.000Z,1000.8
2022-11-20T14:47:24.000Z,1000.8
2022-11-20T14:48:40.000Z,1000.9
2022-11-20T14:49:56.000Z,1000.9
2022-11-20T14:51:13.000Z,1000.7
2022-11-20T14:52:29.000Z,1000.7
2022-11-20T14:53:44.000Z,1000.7
2022-11-20T14:55:00.000Z,1000.6
2022-11-20T14:56:16.000Z,1000.7
2022-11-20T14:57:33.000Z,1000.7
2022-11-20T14:58:49.000Z,1000.6
2022-11-20T15:00:05.000Z,1000.6
2022-11-20T15:01:21.000Z,1000.6
2022-11-20T15:02:37.000Z,1000.6
2022-11-20T15:03:54.000Z,1000.6
2022-11-20T15:05:10.000Z,1000.5
2022-11-20T15:06:26.000Z,1000.5
2022-11-20T15:07:42.000Z,1000.5
2022-11-20T15:08:58.000Z,1000.5
2022-11-20T15:10:14.000Z,1000.5
2022-11-20T15:11:30.000Z,1000.5
2022-11-20T15:12:46.000Z,1000.4
2022-11-20T15:14:02.000Z,1000.4
2022-11-20T15:15:18.000Z,1000.3
2022-11-20T15:16:34.000Z,1000.3
2022-11-20T15:17:51.000Z,1000.3
2022-11-20T15:19:07.000Z,1000.3
2022-11-20T15:20:23.000Z,1000.3
2022-11-20T15:21:39.000Z,1000.3
2022-11-20T15:22:55.000Z,1000.3
2022-11-20T15:24:12.000Z,1000.2
2022-11-20T15:25:28.000Z,1000.2
2022-11-20T15:26:43.000Z,1000.1
2022-11-20T15:27:59.000Z,1000
2022-11-20T15:29:15.000Z,1000
2022-11-20T15:30:32.000Z,1000
2022-11-20T15:31:48.000Z,1000
2022-11-20T15:33:04.000Z,1000
2022-11-20T15:34:20.000Z,1000
2022-11-20T15:35:36.000Z,1000
2022-11-20T15:36:53.000Z,1000
2022-11-20T15:38:09.000Z,1000
2022-11-20T15:39:25.000Z,1000
2022-11-20T15:40:41.000Z,1000.1
2022-11-20T15:41:57.000Z,1000
2022-11-20T15:43:12.000Z,999.9
2022-11-20T15:44:29.000Z,999.9
2022-11-20T15:45:45.000Z,999.9
2022-11-20T15:47:01.000Z,999.9
2022-11-20T15:48:17.000Z,999.9
2022-11-20T15:49:33.000Z,999.9
2022-11-20T15:50:50.000Z,999.7
2022-11-20T15:52:06.000Z,999.8
2022-11-20T15:53:22.000Z,999.7
2022-11-20T15:54:38.000Z,999.7
2022-11-20T15:55:54.000Z,999.7
2022-11-20T15:57:11.000Z,999.6
2022-11-20T15:58:27.000Z,999.6
2022-11-20T15:59:42.000Z,999.6